sensor_id;sensor_type;location;lat;lon;timestamp;pressure;altitude;pressure_sealevel;temperature;humidity
67740;BME280;54536;50.090;14.420;2023-04-26T00:00:28;99263.47;;;10.55;40.86
67740;BME280;54536;50.090;14.420;2023-04-26T00:03:17;99266.38;;;10.52;40.53
67740;BME280;54536;50.090;14.420;2023-04-26T00:05:44;99260.84;;;10.55;40.80
67740;BME280;54536;50.090;14.420;2023-04-26T00:08:11;99262.91;;;10.51;40.82
67740;BME280;54536;50.090;14.420;2023-04-26T00:10:37;99260.84;;;10.55;40.38
67740;BME280;54536;50.090;14.420;2023-04-26T00:13:07;99264.44;;;10.54;41.27
67740;BME280;54536;50.090;14.420;2023-04-26T00:15:33;99268.34;;;10.50;40.21
67740;BME280;54536;50.090;14.420;2023-04-26T00:17:59;99266.38;;;10.62;41.09
67740;BME280;54536;50.090;14.420;2023-04-26T00:20:25;99270.25;;;10.58;42.41
67740;BME280;54536;50.090;14.420;2023-04-26T00:22:51;99269.16;;;10.50;41.08
67740;BME280;54536;50.090;14.420;2023-04-26T00:25:17;99270.09;;;10.59;41.01
67740;BME280;54536;50.090;14.420;2023-04-26T00:27:44;99267.63;;;10.58;40.42
67740;BME280;54536;50.090;14.420;2023-04-26T00:30:11;99270.09;;;10.40;40.74
67740;BME280;54536;50.090;14.420;2023-04-26T00:32:37;99274.00;;;10.45;41.91
67740;BME280;54536;50.090;14.420;2023-04-26T00:35:03;99266.94;;;10.55;43.00
67740;BME280;54536;50.090;14.420;2023-04-26T00:37:31;99277.16;;;10.49;40.26
67740;BME280;54536;50.090;14.420;2023-04-26T00:39:58;99277.31;;;10.28;40.56
67740;BME280;54536;50.090;14.420;2023-04-26T00:42:26;99281.19;;;10.34;41.53
67740;BME280;54536;50.090;14.420;2023-04-26T00:44:51;99276.88;;;10.42;41.33
67740;BME280;54536;50.090;14.420;2023-04-26T00:47:24;99283.25;;;10.40;42.27
67740;BME280;54536;50.090;14.420;2023-04-26T00:49:51;99290.56;;;10.36;41.81
67740;BME280;54536;50.090;14.420;2023-04-26T00:52:18;99287.94;;;10.36;42.25
67740;BME280;54536;50.090;14.420;2023-04-26T00:54:44;99296.53;;;10.28;42.45
67740;BME280;54536;50.090;14.420;2023-04-26T00:57:11;99302.75;;;10.27;42.15
67740;BME280;54536;50.090;14.420;2023-04-26T00:59:37;99302.91;;;10.36;42.45
67740;BME280;54536;50.090;14.420;2023-04-26T01:02:04;99299.41;;;10.25;42.29
67740;BME280;54536;50.090;14.420;2023-04-26T01:04:31;99302.56;;;10.09;43.15
67740;BME280;54536;50.090;14.420;2023-04-26T01:06:59;99301.34;;;10.14;44.52
67740;BME280;54536;50.090;14.420;2023-04-26T01:09:27;99306.28;;;10.17;44.34
67740;BME280;54536;50.090;14.420;2023-04-26T01:11:55;99306.81;;;9.91;43.53
67740;BME280;54536;50.090;14.420;2023-04-26T01:14:23;99307.50;;;10.03;44.62
67740;BME280;54536;50.090;14.420;2023-04-26T01:16:50;99315.22;;;9.85;43.70
67740;BME280;54536;50.090;14.420;2023-04-26T01:19:17;99317.00;;;9.75;44.32
67740;BME280;54536;50.090;14.420;2023-04-26T01:21:43;99315.91;;;9.87;44.10
67740;BME280;54536;50.090;14.420;2023-04-26T01:24:11;99318.53;;;9.87;46.32
67740;BME280;54536;50.090;14.420;2023-04-26T01:26:38;99321.38;;;9.74;44.46
67740;BME280;54536;50.090;14.420;2023-04-26T01:29:18;99320.13;;;9.69;44.98
67740;BME280;54536;50.090;14.420;2023-04-26T01:31:46;99315.97;;;9.66;44.46
67740;BME280;54536;50.090;14.420;2023-04-26T01:34:13;99327.56;;;9.64;45.23
67740;BME280;54536;50.090;14.420;2023-04-26T01:36:39;99318.41;;;9.58;45.46
67740;BME280;54536;50.090;14.420;2023-04-26T01:39:06;99321.22;;;9.66;45.65
67740;BME280;54536;50.090;14.420;2023-04-26T01:41:34;99316.50;;;9.60;45.28
67740;BME280;54536;50.090;14.420;2023-04-26T01:44:00;99318.47;;;9.68;44.88
67740;BME280;54536;50.090;14.420;2023-04-26T01:46:26;99319.09;;;9.50;45.02
67740;BME280;54536;50.090;14.420;2023-04-26T01:48:52;99321.59;;;9.52;45.23
67740;BME280;54536;50.090;14.420;2023-04-26T01:51:19;99326.66;;;9.44;45.05
67740;BME280;54536;50.090;14.420;2023-04-26T01:53:46;99321.59;;;9.52;45.44
67740;BME280;54536;50.090;14.420;2023-04-26T01:56:12;99315.94;;;9.56;45.46
67740;BME280;54536;50.090;14.420;2023-04-26T01:58:38;99320.63;;;9.53;45.47
67740;BME280;54536;50.090;14.420;2023-04-26T02:01:06;99322.72;;;9.59;44.89
67740;BME280;54536;50.090;14.420;2023-04-26T02:03:33;99322.72;;;9.59;45.14
67740;BME280;54536;50.090;14.420;2023-04-26T02:05:59;99318.41;;;9.58;46.53
67740;BME280;54536;50.090;14.420;2023-04-26T02:08:25;99324.34;;;9.50;45.25
67740;BME280;54536;50.090;14.420;2023-04-26T02:10:52;99323.16;;;9.64;45.74
67740;BME280;54536;50.090;14.420;2023-04-26T02:13:18;99328.53;;;9.63;45.50
67740;BME280;54536;50.090;14.420;2023-04-26T02:15:49;99327.97;;;9.59;44.83
67740;BME280;54536;50.090;14.420;2023-04-26T02:18:16;99318.47;;;9.68;46.27
67740;BME280;54536;50.090;14.420;2023-04-26T02:20:43;99321.38;;;9.74;45.23
67740;BME280;54536;50.090;14.420;2023-04-26T02:23:11;99325.53;;;9.77;45.34
67740;BME280;54536;50.090;14.420;2023-04-26T02:25:38;99335.06;;;9.68;45.93
67740;BME280;54536;50.090;14.420;2023-04-26T02:28:05;99326.66;;;9.84;45.94
67740;BME280;54536;50.090;14.420;2023-04-26T02:30:31;99325.53;;;9.77;45.19
67740;BME280;54536;50.090;14.420;2023-04-26T02:32:57;99333.56;;;9.75;46.00
67740;BME280;54536;50.090;14.420;2023-04-26T02:35:24;99333.31;;;9.78;45.01
67740;BME280;54536;50.090;14.420;2023-04-26T02:37:50;99334.69;;;9.82;45.80
67740;BME280;54536;50.090;14.420;2023-04-26T02:40:18;99332.22;;;9.81;45.77
67740;BME280;54536;50.090;14.420;2023-04-26T02:42:44;99335.09;;;9.78;45.02
67740;BME280;54536;50.090;14.420;2023-04-26T02:45:10;99322.31;;;9.64;45.92
67740;BME280;54536;50.090;14.420;2023-04-26T02:47:37;99326.63;;;9.74;45.38
67740;BME280;54536;50.090;14.420;2023-04-26T02:50:07;99328.09;;;9.88;45.72
67740;BME280;54536;50.090;14.420;2023-04-26T02:52:34;99330.84;;;9.87;47.12
67740;BME280;54536;50.090;14.420;2023-04-26T02:55:02;99334.44;;;9.85;45.57
67740;BME280;54536;50.090;14.420;2023-04-26T02:57:32;99330.84;;;9.87;45.83
67740;BME280;54536;50.090;14.420;2023-04-26T02:59:58;99338.34;;;9.91;45.87
67740;BME280;54536;50.090;14.420;2023-04-26T03:02:25;99323.66;;;9.89;46.46
67740;BME280;54536;50.090;14.420;2023-04-26T03:04:51;99329.00;;;9.77;45.05
67740;BME280;54536;50.090;14.420;2023-04-26T03:07:17;99332.75;;;9.75;45.51
67740;BME280;54536;50.090;14.420;2023-04-26T03:09:43;99337.19;;;9.84;46.04
67740;BME280;54536;50.090;14.420;2023-04-26T03:12:10;99334.22;;;9.68;45.19
67740;BME280;54536;50.090;14.420;2023-04-26T03:14:36;99336.56;;;9.71;45.29
67740;BME280;54536;50.090;14.420;2023-04-26T03:17:02;99337.50;;;9.60;45.97
67740;BME280;54536;50.090;14.420;2023-04-26T03:19:29;99326.94;;;9.71;45.44
67740;BME280;54536;50.090;14.420;2023-04-26T03:21:55;99332.19;;;9.71;47.13
67740;BME280;54536;50.090;14.420;2023-04-26T03:24:21;99339.00;;;9.53;45.67
67740;BME280;54536;50.090;14.420;2023-04-26T03:26:48;99340.69;;;9.64;46.26
67740;BME280;54536;50.090;14.420;2023-04-26T03:29:15;99337.97;;;9.65;45.97
67740;BME280;54536;50.090;14.420;2023-04-26T03:31:41;99350.50;;;9.61;45.48
67740;BME280;54536;50.090;14.420;2023-04-26T03:34:07;99353.03;;;9.73;46.71
67740;BME280;54536;50.090;14.420;2023-04-26T03:36:33;99345.00;;;9.65;45.53
67740;BME280;54536;50.090;14.420;2023-04-26T03:39:00;99351.75;;;9.67;45.71
67740;BME280;54536;50.090;14.420;2023-04-26T03:41:26;99350.31;;;9.53;46.34
67740;BME280;54536;50.090;14.420;2023-04-26T03:43:52;99352.06;;;9.74;46.33
67740;BME280;54536;50.090;14.420;2023-04-26T03:46:18;99357.47;;;9.72;46.62
67740;BME280;54536;50.090;14.420;2023-04-26T03:48:44;99358.75;;;9.78;46.85
67740;BME280;54536;50.090;14.420;2023-04-26T03:51:10;99356.41;;;9.84;46.25
67740;BME280;54536;50.090;14.420;2023-04-26T03:53:37;99360.25;;;9.80;46.18
67740;BME280;54536;50.090;14.420;2023-04-26T03:56:03;99365.91;;;9.76;46.70
67740;BME280;54536;50.090;14.420;2023-04-26T03:58:29;99367.50;;;9.67;46.73
67740;BME280;54536;50.090;14.420;2023-04-26T04:00:55;99364.94;;;9.77;46.88
67740;BME280;54536;50.090;14.420;2023-04-26T04:03:22;99371.97;;;9.76;46.37
67740;BME280;54536;50.090;14.420;2023-04-26T04:05:49;99369.06;;;9.70;46.04
67740;BME280;54536;50.090;14.420;2023-04-26T04:08:15;99373.91;;;9.74;46.48
67740;BME280;54536;50.090;14.420;2023-04-26T04:10:41;99370.91;;;9.79;46.40
67740;BME280;54536;50.090;14.420;2023-04-26T04:13:08;99376.34;;;9.97;46.78
67740;BME280;54536;50.090;14.420;2023-04-26T04:15:34;99368.72;;;9.94;46.25
67740;BME280;54536;50.090;14.420;2023-04-26T04:18:00;99379.13;;;9.95;46.57
67740;BME280;54536;50.090;14.420;2023-04-26T04:20:25;99379.91;;;9.86;46.72
67740;BME280;54536;50.090;14.420;2023-04-26T04:22:52;99376.19;;;9.89;46.71
67740;BME280;54536;50.090;14.420;2023-04-26T04:25:18;99376.75;;;9.92;47.44
67740;BME280;54536;50.090;14.420;2023-04-26T04:27:47;99382.72;;;9.94;46.29
67740;BME280;54536;50.090;14.420;2023-04-26T04:30:13;99379.19;;;9.84;46.62
67740;BME280;54536;50.090;14.420;2023-04-26T04:32:40;99380.69;;;9.77;46.62
67740;BME280;54536;50.090;14.420;2023-04-26T04:35:10;99384.75;;;9.81;47.34
67740;BME280;54536;50.090;14.420;2023-04-26T04:37:36;99384.34;;;9.85;46.76
67740;BME280;54536;50.090;14.420;2023-04-26T04:40:03;99383.53;;;9.95;46.48
67740;BME280;54536;50.090;14.420;2023-04-26T04:42:30;99391.38;;;9.85;46.78
67740;BME280;54536;50.090;14.420;2023-04-26T04:44:56;99394.69;;;9.87;46.67
67740;BME280;54536;50.090;14.420;2023-04-26T04:47:24;99393.75;;;9.88;46.78
67740;BME280;54536;50.090;14.420;2023-04-26T04:49:50;99390.75;;;10.02;46.53
67740;BME280;54536;50.090;14.420;2023-04-26T04:52:18;99397.41;;;10.06;46.24
67740;BME280;54536;50.090;14.420;2023-04-26T04:54:46;99396.41;;;9.98;47.40
67740;BME280;54536;50.090;14.420;2023-04-26T04:57:13;99400.28;;;10.03;46.61
67740;BME280;54536;50.090;14.420;2023-04-26T04:59:41;99401.09;;;9.94;47.21
67740;BME280;54536;50.090;14.420;2023-04-26T05:02:08;99401.22;;;9.93;48.74
67740;BME280;54536;50.090;14.420;2023-04-26T05:04:34;99407.25;;;9.83;47.67
67740;BME280;54536;50.090;14.420;2023-04-26T05:07:00;99402.44;;;9.89;47.45
67740;BME280;54536;50.090;14.420;2023-04-26T05:09:26;99401.31;;;9.81;47.66
67740;BME280;54536;50.090;14.420;2023-04-26T05:11:53;99401.84;;;9.75;47.52
67740;BME280;54536;50.090;14.420;2023-04-26T05:14:19;99409.00;;;9.73;47.50
67740;BME280;54536;50.090;14.420;2023-04-26T05:16:45;99408.38;;;9.81;48.50
67740;BME280;54536;50.090;14.420;2023-04-26T05:19:11;99412.59;;;9.72;47.50
67740;BME280;54536;50.090;14.420;2023-04-26T05:21:38;99407.88;;;9.66;48.01
67740;BME280;54536;50.090;14.420;2023-04-26T05:24:04;99413.94;;;9.67;47.79
67740;BME280;54536;50.090;14.420;2023-04-26T05:26:31;99422.19;;;9.83;47.56
67740;BME280;54536;50.090;14.420;2023-04-26T05:28:56;99422.41;;;10.01;47.25
67740;BME280;54536;50.090;14.420;2023-04-26T05:31:23;99423.63;;;9.97;47.52
67740;BME280;54536;50.090;14.420;2023-04-26T05:33:49;99426.81;;;10.00;47.42
67740;BME280;54536;50.090;14.420;2023-04-26T05:36:15;99430.50;;;10.19;47.97
67740;BME280;54536;50.090;14.420;2023-04-26T05:38:41;99434.09;;;10.18;47.29
67740;BME280;54536;50.090;14.420;2023-04-26T05:41:07;99431.13;;;10.01;46.46
67740;BME280;54536;50.090;14.420;2023-04-26T05:43:33;99432.84;;;10.22;46.88
67740;BME280;54536;50.090;14.420;2023-04-26T05:46:00;99432.47;;;10.26;47.28
67740;BME280;54536;50.090;14.420;2023-04-26T05:48:26;99436.19;;;10.24;46.04
67740;BME280;54536;50.090;14.420;2023-04-26T05:50:55;99436.56;;;10.19;46.42
67740;BME280;54536;50.090;14.420;2023-04-26T05:53:21;99445.25;;;10.31;46.41
67740;BME280;54536;50.090;14.420;2023-04-26T05:55:47;99439.97;;;10.31;45.65
67740;BME280;54536;50.090;14.420;2023-04-26T05:58:13;99446.22;;;10.40;46.57
67740;BME280;54536;50.090;14.420;2023-04-26T06:00:40;99441.38;;;10.35;45.64
67740;BME280;54536;50.090;14.420;2023-04-26T06:03:06;99449.56;;;10.42;45.89
67740;BME280;54536;50.090;14.420;2023-04-26T06:05:32;99452.19;;;10.42;45.58
67740;BME280;54536;50.090;14.420;2023-04-26T06:07:59;99449.03;;;10.48;44.81
67740;BME280;54536;50.090;14.420;2023-04-26T06:10:26;99450.94;;;10.46;46.11
67740;BME280;54536;50.090;14.420;2023-04-26T06:12:52;99455.25;;;10.47;44.74
67740;BME280;54536;50.090;14.420;2023-04-26T06:15:19;99450.94;;;10.46;45.90
67740;BME280;54536;50.090;14.420;2023-04-26T06:17:45;99448.78;;;10.20;45.53
67740;BME280;54536;50.090;14.420;2023-04-26T06:20:11;99455.09;;;10.48;44.79
67740;BME280;54536;50.090;14.420;2023-04-26T06:22:37;99460.84;;;10.63;44.68
67740;BME280;54536;50.090;14.420;2023-04-26T06:25:05;99457.06;;;10.66;43.50
67740;BME280;54536;50.090;14.420;2023-04-26T06:27:31;99454.06;;;10.70;43.94
67740;BME280;54536;50.090;14.420;2023-04-26T06:29:58;99455.19;;;10.77;43.00
67740;BME280;54536;50.090;14.420;2023-04-26T06:32:24;99459.88;;;10.74;43.67
67740;BME280;54536;50.090;14.420;2023-04-26T06:34:50;99456.53;;;10.72;43.93
67740;BME280;54536;50.090;14.420;2023-04-26T06:37:16;99463.22;;;10.76;44.91
67740;BME280;54536;50.090;14.420;2023-04-26T06:39:45;99467.06;;;10.82;44.19
67740;BME280;54536;50.090;14.420;2023-04-26T06:42:11;99475.63;;;10.64;44.07
67740;BME280;54536;50.090;14.420;2023-04-26T06:44:38;99463.50;;;10.83;44.51
67740;BME280;54536;50.090;14.420;2023-04-26T06:47:05;99468.19;;;10.89;43.20
67740;BME280;54536;50.090;14.420;2023-04-26T06:49:34;99467.53;;;10.96;44.22
67740;BME280;54536;50.090;14.420;2023-04-26T06:52:01;99467.38;;;10.98;43.26
67740;BME280;54536;50.090;14.420;2023-04-26T06:54:30;99467.53;;;10.96;44.12
67740;BME280;54536;50.090;14.420;2023-04-26T06:56:57;99476.09;;;10.98;43.50
67740;BME280;54536;50.090;14.420;2023-04-26T06:59:24;99479.84;;;10.96;42.32
67740;BME280;54536;50.090;14.420;2023-04-26T07:01:51;99480.81;;;10.95;42.82
67740;BME280;54536;50.090;14.420;2023-04-26T07:04:19;99484.28;;;10.86;42.76
67740;BME280;54536;50.090;14.420;2023-04-26T07:06:45;99489.25;;;11.08;42.84
67740;BME280;54536;50.090;14.420;2023-04-26T07:09:12;99483.63;;;11.32;42.23
67740;BME280;54536;50.090;14.420;2023-04-26T07:11:38;99472.25;;;11.41;41.68
67740;BME280;54536;50.090;14.420;2023-04-26T07:14:04;99476.38;;;11.24;42.28
67740;BME280;54536;50.090;14.420;2023-04-26T07:16:31;99475.72;;;11.22;42.78
67740;BME280;54536;50.090;14.420;2023-04-26T07:18:58;99480.72;;;11.25;41.82
67740;BME280;54536;50.090;14.420;2023-04-26T07:21:30;99471.28;;;11.33;41.14
67740;BME280;54536;50.090;14.420;2023-04-26T07:23:57;99477.63;;;11.59;40.80
67740;BME280;54536;50.090;14.420;2023-04-26T07:26:24;99481.34;;;11.76;41.88
67740;BME280;54536;50.090;14.420;2023-04-26T07:28:51;99482.03;;;11.78;40.32
67740;BME280;54536;50.090;14.420;2023-04-26T07:31:26;99474.00;;;11.70;40.79
67740;BME280;54536;50.090;14.420;2023-04-26T07:33:54;99482.72;;;11.70;41.06
67740;BME280;54536;50.090;14.420;2023-04-26T07:36:20;99482.78;;;11.51;41.33
67740;BME280;54536;50.090;14.420;2023-04-26T07:38:46;99485.00;;;11.46;41.18
67740;BME280;54536;50.090;14.420;2023-04-26T07:41:12;99480.97;;;11.52;41.04
67740;BME280;54536;50.090;14.420;2023-04-26T07:43:43;99480.97;;;11.52;40.33
67740;BME280;54536;50.090;14.420;2023-04-26T07:46:09;99485.53;;;11.40;41.15
67740;BME280;54536;50.090;14.420;2023-04-26T07:48:36;99480.25;;;11.69;40.79
67740;BME280;54536;50.090;14.420;2023-04-26T07:51:11;99481.63;;;11.73;40.18
67740;BME280;54536;50.090;14.420;2023-04-26T07:53:38;99486.50;;;11.58;40.15
67740;BME280;54536;50.090;14.420;2023-04-26T07:56:06;99488.16;;;11.59;40.03
67740;BME280;54536;50.090;14.420;2023-04-26T07:58:36;99491.78;;;11.68;40.04
67740;BME280;54536;50.090;14.420;2023-04-26T08:01:04;99481.63;;;11.73;39.22
67740;BME280;54536;50.090;14.420;2023-04-26T08:03:31;99490.09;;;11.67;38.97
67740;BME280;54536;50.090;14.420;2023-04-26T08:05:57;99481.22;;;11.78;39.55
67740;BME280;54536;50.090;14.420;2023-04-26T08:08:25;99479.25;;;11.80;39.27
67740;BME280;54536;50.090;14.420;2023-04-26T08:10:51;99483.44;;;11.72;39.75
67740;BME280;54536;50.090;14.420;2023-04-26T08:13:18;99483.03;;;11.67;39.21
67740;BME280;54536;50.090;14.420;2023-04-26T08:15:44;99478.31;;;11.71;39.16
67740;BME280;54536;50.090;14.420;2023-04-26T08:18:10;99481.78;;;11.71;38.07
67740;BME280;54536;50.090;14.420;2023-04-26T08:20:37;99492.16;;;11.83;38.98
67740;BME280;54536;50.090;14.420;2023-04-26T08:23:03;99488.13;;;11.79;39.32
67740;BME280;54536;50.090;14.420;2023-04-26T08:25:30;99483.97;;;11.76;38.27
67740;BME280;54536;50.090;14.420;2023-04-26T08:27:56;99488.72;;;11.63;39.00
67740;BME280;54536;50.090;14.420;2023-04-26T08:30:22;99484.81;;;11.67;38.35
67740;BME280;54536;50.090;14.420;2023-04-26T08:32:48;99496.47;;;11.74;38.12
67740;BME280;54536;50.090;14.420;2023-04-26T08:35:14;99496.75;;;11.81;37.92
67740;BME280;54536;50.090;14.420;2023-04-26T08:37:41;99498.97;;;11.76;36.99
67740;BME280;54536;50.090;14.420;2023-04-26T08:40:07;99506.28;;;11.82;36.76
67740;BME280;54536;50.090;14.420;2023-04-26T08:42:41;99500.88;;;11.93;36.71
67740;BME280;54536;50.090;14.420;2023-04-26T08:45:09;99505.34;;;11.92;37.31
67740;BME280;54536;50.090;14.420;2023-04-26T08:47:46;99516.69;;;11.83;37.20
67740;BME280;54536;50.090;14.420;2023-04-26T08:50:14;99510.75;;;11.81;36.15
67740;BME280;54536;50.090;14.420;2023-04-26T08:52:42;99516.28;;;11.78;35.57
67740;BME280;54536;50.090;14.420;2023-04-26T08:55:09;99508.41;;;11.88;36.84
67740;BME280;54536;50.090;14.420;2023-04-26T08:57:38;99520.59;;;11.89;38.40
67740;BME280;54536;50.090;14.420;2023-04-26T09:00:06;99519.50;;;11.91;38.38
67740;BME280;54536;50.090;14.420;2023-04-26T09:02:45;99518.38;;;11.94;37.68
67740;BME280;54536;50.090;14.420;2023-04-26T09:05:12;99516.84;;;11.82;37.41
67740;BME280;54536;50.090;14.420;2023-04-26T09:07:45;99523.50;;;11.76;37.71
67740;BME280;54536;50.090;14.420;2023-04-26T09:10:13;99528.63;;;11.97;39.02
67740;BME280;54536;50.090;14.420;2023-04-26T09:12:44;99513.75;;;12.06;39.47
67740;BME280;54536;50.090;14.420;2023-04-26T09:15:10;99515.28;;;12.08;37.92
67740;BME280;54536;50.090;14.420;2023-04-26T09:17:37;99501.97;;;12.10;37.47
67740;BME280;54536;50.090;14.420;2023-04-26T09:20:27;99503.16;;;12.25;37.89
67740;BME280;54536;50.090;14.420;2023-04-26T09:23:05;99504.13;;;12.24;37.27
67740;BME280;54536;50.090;14.420;2023-04-26T09:25:32;99514.69;;;12.24;36.21
67740;BME280;54536;50.090;14.420;2023-04-26T09:28:00;99509.44;;;12.52;36.83
67740;BME280;54536;50.090;14.420;2023-04-26T09:30:27;99503.75;;;12.74;36.31
67740;BME280;54536;50.090;14.420;2023-04-26T09:32:56;99503.94;;;12.73;35.61
67740;BME280;54536;50.090;14.420;2023-04-26T09:35:40;99501.53;;;12.79;36.42
67740;BME280;54536;50.090;14.420;2023-04-26T09:38:07;99506.28;;;12.76;36.29
67740;BME280;54536;50.090;14.420;2023-04-26T09:40:37;99501.19;;;12.92;37.50
67740;BME280;54536;50.090;14.420;2023-04-26T09:43:08;99510.63;;;12.85;35.93
67740;BME280;54536;50.090;14.420;2023-04-26T09:46:05;99494.16;;;13.01;34.63
67740;BME280;54536;50.090;14.420;2023-04-26T09:48:33;99499.66;;;12.89;32.42
67740;BME280;54536;50.090;14.420;2023-04-26T09:53:40;99487.63;;;12.59;32.71
67740;BME280;54536;50.090;14.420;2023-04-26T09:56:15;99486.19;;;12.65;33.84
67740;BME280;54536;50.090;14.420;2023-04-26T10:01:15;99483.81;;;13.07;33.97
67740;BME280;54536;50.090;14.420;2023-04-26T10:03:43;99490.09;;;12.88;32.51
67740;BME280;54536;50.090;14.420;2023-04-26T10:06:09;99491.34;;;13.30;32.96
67740;BME280;54536;50.090;14.420;2023-04-26T10:08:35;99487.09;;;13.37;31.05
67740;BME280;54536;50.090;14.420;2023-04-26T10:11:03;99481.25;;;13.25;31.17
67740;BME280;54536;50.090;14.420;2023-04-26T10:13:33;99487.16;;;13.09;31.72
67740;BME280;54536;50.090;14.420;2023-04-26T10:16:00;99489.41;;;12.86;31.51
67740;BME280;54536;50.090;14.420;2023-04-26T10:18:27;99484.72;;;12.80;31.41
67740;BME280;54536;50.090;14.420;2023-04-26T10:20:57;99506.28;;;12.76;31.66
67740;BME280;54536;50.090;14.420;2023-04-26T10:23:25;99504.84;;;12.81;31.92
67740;BME280;54536;50.090;14.420;2023-04-26T10:25:53;99494.19;;;12.73;31.05
67740;BME280;54536;50.090;14.420;2023-04-26T10:31:11;99495.13;;;12.82;31.68
67740;BME280;54536;50.090;14.420;2023-04-26T10:33:37;99491.50;;;13.01;33.55
67740;BME280;54536;50.090;14.420;2023-04-26T10:36:11;99485.88;;;13.13;32.97
67740;BME280;54536;50.090;14.420;2023-04-26T10:39:19;99490.03;;;13.16;31.32
67740;BME280;54536;50.090;14.420;2023-04-26T10:41:46;99486.59;;;13.51;31.47
67740;BME280;54536;50.090;14.420;2023-04-26T10:44:36;99478.69;;;13.59;31.03
67740;BME280;54536;50.090;14.420;2023-04-26T10:47:05;99478.78;;;13.68;30.73
67740;BME280;54536;50.090;14.420;2023-04-26T10:49:44;99472.06;;;13.73;31.49
67740;BME280;54536;50.090;14.420;2023-04-26T10:52:15;99471.47;;;13.62;31.01
67740;BME280;54536;50.090;14.420;2023-04-26T10:57:16;99478.41;;;13.63;30.70
67740;BME280;54536;50.090;14.420;2023-04-26T11:03:04;99467.50;;;14.18;30.05
67740;BME280;54536;50.090;14.420;2023-04-26T11:08:04;99465.47;;;14.80;26.97
67740;BME280;54536;50.090;14.420;2023-04-26T11:10:31;99461.41;;;14.51;27.75
67740;BME280;54536;50.090;14.420;2023-04-26T11:13:00;99466.41;;;14.28;26.86
67740;BME280;54536;50.090;14.420;2023-04-26T11:15:31;99461.44;;;14.25;28.64
67740;BME280;54536;50.090;14.420;2023-04-26T11:18:01;99465.38;;;14.21;29.55
67740;BME280;54536;50.090;14.420;2023-04-26T11:20:32;99463.72;;;14.20;29.54
67740;BME280;54536;50.090;14.420;2023-04-26T11:22:59;99464.66;;;14.11;29.88
67740;BME280;54536;50.090;14.420;2023-04-26T11:25:28;99465.25;;;14.23;29.57
67740;BME280;54536;50.090;14.420;2023-04-26T11:28:01;99464.31;;;14.06;30.16
67740;BME280;54536;50.090;14.420;2023-04-26T11:30:29;99462.66;;;14.05;28.54
67740;BME280;54536;50.090;14.420;2023-04-26T11:32:58;99460.16;;;14.29;29.23
67740;BME280;54536;50.090;14.420;2023-04-26T11:35:24;99457.31;;;14.31;28.17
67740;BME280;54536;50.090;14.420;2023-04-26T11:37:51;99465.19;;;14.49;27.67
67740;BME280;54536;50.090;14.420;2023-04-26T11:40:18;99469.91;;;14.37;26.77
67740;BME280;54536;50.090;14.420;2023-04-26T11:42:45;99471.44;;;14.48;26.82
67740;BME280;54536;50.090;14.420;2023-04-26T11:45:14;99462.69;;;14.47;27.02
67740;BME280;54536;50.090;14.420;2023-04-26T11:47:42;99464.31;;;14.40;27.45
67740;BME280;54536;50.090;14.420;2023-04-26T11:50:09;99464.63;;;14.37;27.24
67740;BME280;54536;50.090;14.420;2023-04-26T11:52:37;99460.47;;;14.35;27.58
67740;BME280;54536;50.090;14.420;2023-04-26T11:55:05;99456.34;;;14.32;26.77
67740;BME280;54536;50.090;14.420;2023-04-26T11:57:32;99462.19;;;14.44;27.09
67740;BME280;54536;50.090;14.420;2023-04-26T12:00:08;99468.63;;;14.84;27.60
67740;BME280;54536;50.090;14.420;2023-04-26T12:02:43;99471.91;;;14.78;27.08
67740;BME280;54536;50.090;14.420;2023-04-26T12:05:26;99479.00;;;14.69;26.35
67740;BME280;54536;50.090;14.420;2023-04-26T12:07:54;99470.19;;;14.52;26.81
67740;BME280;54536;50.090;14.420;2023-04-26T12:10:32;99471.44;;;14.48;27.61
67740;BME280;54536;50.090;14.420;2023-04-26T12:12:59;99472.63;;;14.45;28.50
67740;BME280;54536;50.090;14.420;2023-04-26T12:15:31;99470.22;;;14.26;28.33
67740;BME280;54536;50.090;14.420;2023-04-26T12:18:09;99479.19;;;14.75;27.37
67740;BME280;54536;50.090;14.420;2023-04-26T12:20:38;99468.69;;;15.57;26.50
67740;BME280;54536;50.090;14.420;2023-04-26T12:23:06;99474.34;;;15.38;26.98
67740;BME280;54536;50.090;14.420;2023-04-26T12:25:35;99455.25;;;15.02;27.03
67740;BME280;54536;50.090;14.420;2023-04-26T12:28:05;99464.72;;;15.04;26.97
67740;BME280;54536;50.090;14.420;2023-04-26T12:30:33;99467.88;;;15.40;26.46
67740;BME280;54536;50.090;14.420;2023-04-26T12:32:59;99460.38;;;16.09;26.25
67740;BME280;54536;50.090;14.420;2023-04-26T12:35:25;99454.13;;;16.81;24.65
67740;BME280;54536;50.090;14.420;2023-04-26T12:37:51;99458.19;;;17.75;23.10
67740;BME280;54536;50.090;14.420;2023-04-26T12:40:19;99459.38;;;18.91;23.00
67740;BME280;54536;50.090;14.420;2023-04-26T12:42:49;99457.22;;;18.65;21.87
67740;BME280;54536;50.090;14.420;2023-04-26T12:45:16;99451.72;;;19.03;21.51
67740;BME280;54536;50.090;14.420;2023-04-26T12:47:46;99444.28;;;20.32;20.32
67740;BME280;54536;50.090;14.420;2023-04-26T12:50:14;99442.78;;;20.51;19.73
67740;BME280;54536;50.090;14.420;2023-04-26T12:52:41;99446.34;;;20.37;20.46
67740;BME280;54536;50.090;14.420;2023-04-26T12:55:14;99437.59;;;21.31;18.37
67740;BME280;54536;50.090;14.420;2023-04-26T12:57:43;99441.75;;;21.40;18.64
67740;BME280;54536;50.090;14.420;2023-04-26T13:00:12;99455.00;;;19.48;19.67
67740;BME280;54536;50.090;14.420;2023-04-26T13:02:39;99465.94;;;19.10;20.63
67740;BME280;54536;50.090;14.420;2023-04-26T13:05:08;99454.81;;;18.70;21.31
67740;BME280;54536;50.090;14.420;2023-04-26T13:07:37;99440.75;;;18.25;22.40
67740;BME280;54536;50.090;14.420;2023-04-26T13:10:05;99448.69;;;17.81;22.45
67740;BME280;54536;50.090;14.420;2023-04-26T13:12:33;99453.38;;;19.04;21.28